Time;durP1;ratioP1;P1;durP2;ratioP2;P2;SDS_P1;SDS_P2;PMS_P1;PMS_P2;Temp;Humidity;BMP_temperature;BMP_pressure;BME280_temperature;BME280_humidity;BME280_pressure;Samples;Min_cycle;Max_cycle;Signal;HPM_P1;HPM_P2
2021/01/09 00:02:15;;;;;;;32.45;14.13;;;2.40;99.90;;;;;;4992862;28;20362;-78
2021/01/09 00:04:41;;;;;;;22.45;13.02;;;2.40;99.90;;;;;;4992900;28;20393;-78
2021/01/09 00:07:10;;;;;;;22.65;13.73;;;2.40;99.90;;;;;;4975296;28;20109;-78
2021/01/09 00:09:37;;;;;;;28.77;13.90;;;2.40;99.90;;;;;;4993037;28;20018;-78
2021/01/09 00:12:04;;;;;;;22.83;13.15;;;2.40;99.90;;;;;;4992894;28;20018;-78
2021/01/09 00:14:30;;;;;;;22.52;13.63;;;2.30;99.90;;;;;;5004403;28;20405;-78
2021/01/09 00:16:56;;;;;;;24.17;13.07;;;2.30;99.90;;;;;;5012120;28;20033;-78
2021/01/09 00:19:22;;;;;;;23.17;13.45;;;2.30;99.90;;;;;;5012155;28;20105;-78
2021/01/09 00:21:48;;;;;;;22.15;13.98;;;2.20;99.90;;;;;;5031825;28;20527;-78
2021/01/09 00:24:13;;;;;;;24.40;12.63;;;2.20;99.90;;;;;;5015480;28;20014;-78
2021/01/09 00:26:39;;;;;;;23.20;13.07;;;2.20;99.90;;;;;;5032860;28;20038;-77
2021/01/09 00:29:05;;;;;;;21.98;13.00;;;2.20;99.90;;;;;;5033935;28;20037;-77
2021/01/09 00:31:39;;;;;;;22.63;13.05;;;2.10;99.90;;;;;;5025253;28;20456;-78
2021/01/09 00:34:04;;;;;;;24.30;12.90;;;2.10;99.90;;;;;;5013882;28;20101;-78
2021/01/09 00:36:30;;;;;;;25.40;13.40;;;2.10;99.90;;;;;;5013807;28;20357;-78
2021/01/09 00:38:56;;;;;;;22.88;13.68;;;2.00;99.90;;;;;;5013802;28;20076;-78
2021/01/09 00:41:29;;;;;;;25.15;12.50;;;2.10;99.90;;;;;;5013793;28;20057;-79
2021/01/09 00:43:55;;;;;;;22.48;13.43;;;2.00;99.90;;;;;;5013377;28;20026;-79
2021/01/09 00:46:21;;;;;;;23.05;12.55;;;2.00;99.90;;;;;;5012882;28;20057;-79
2021/01/09 00:48:47;;;;;;;23.60;13.25;;;1.90;99.90;;;;;;4994587;28;20495;-78
2021/01/09 00:51:14;;;;;;;23.20;13.65;;;1.80;99.90;;;;;;5015554;28;20375;-77
2021/01/09 00:53:40;;;;;;;23.15;12.85;;;1.80;99.90;;;;;;5015832;28;20026;-77
2021/01/09 00:56:07;;;;;;;23.25;13.23;;;1.70;99.90;;;;;;5015610;28;20026;-78
2021/01/09 00:58:35;;;;;;;25.20;13.25;;;1.70;99.90;;;;;;5015626;28;20014;-77
2021/01/09 01:01:02;;;;;;;23.77;12.80;;;1.60;99.90;;;;;;5016934;28;20022;-77
2021/01/09 01:03:28;;;;;;;24.48;13.45;;;1.60;99.90;;;;;;5018379;28;20025;-78
2021/01/09 01:05:54;;;;;;;24.67;12.80;;;1.60;99.90;;;;;;5016415;28;20117;-77
2021/01/09 01:08:20;;;;;;;22.80;12.80;;;1.60;99.90;;;;;;5016538;28;20052;-77
2021/01/09 01:10:49;;;;;;;22.17;12.80;;;1.60;99.90;;;;;;5015326;28;20033;-78
2021/01/09 01:13:15;;;;;;;34.35;18.67;;;1.60;99.90;;;;;;5014995;28;20018;-78
2021/01/09 01:15:42;;;;;;;29.85;16.77;;;1.50;99.90;;;;;;4997710;28;20022;-78
2021/01/09 01:18:08;;;;;;;26.35;13.25;;;1.50;99.90;;;;;;5015190;28;20069;-77
2021/01/09 01:20:34;;;;;;;23.00;12.60;;;1.50;99.90;;;;;;5015121;28;20032;-78
2021/01/09 01:23:00;;;;;;;25.83;13.52;;;1.60;99.90;;;;;;4997393;28;20030;-78
2021/01/09 01:25:25;;;;;;;21.20;12.73;;;1.50;99.90;;;;;;4997253;28;20022;-78
2021/01/09 01:27:51;;;;;;;24.00;13.10;;;1.60;99.90;;;;;;5014889;28;20026;-78
2021/01/09 01:30:17;;;;;;;22.98;12.55;;;1.60;99.90;;;;;;5014973;28;20065;-78
2021/01/09 01:32:43;;;;;;;23.20;12.23;;;1.60;99.90;;;;;;5015188;28;20076;-78
2021/01/09 01:35:09;;;;;;;26.42;13.32;;;1.70;99.90;;;;;;4997399;28;20424;-78
2021/01/09 01:37:35;;;;;;;23.67;13.25;;;1.70;99.90;;;;;;5014724;28;20033;-78
2021/01/09 01:40:02;;;;;;;19.27;11.73;;;1.70;99.90;;;;;;5014930;28;20026;-78
2021/01/09 01:42:29;;;;;;;20.92;11.95;;;1.70;99.90;;;;;;5014229;28;20037;-78
2021/01/09 01:44:55;;;;;;;25.25;13.38;;;1.70;99.90;;;;;;5014569;28;20476;-77
2021/01/09 01:47:21;;;;;;;27.75;12.60;;;1.80;99.90;;;;;;5014758;28;20022;-79
2021/01/09 01:49:49;;;;;;;20.38;12.25;;;1.80;99.90;;;;;;5014671;28;20022;-78
2021/01/09 01:52:15;;;;;;;26.77;13.55;;;1.80;99.90;;;;;;4996852;28;20117;-78
2021/01/09 01:54:45;;;;;;;22.20;13.30;;;1.80;99.90;;;;;;5014576;28;20476;-78
2021/01/09 01:57:12;;;;;;;24.38;13.50;;;1.90;99.90;;;;;;5014508;28;20553;-78
2021/01/09 01:59:41;;;;;;;24.88;13.40;;;1.90;99.90;;;;;;5014381;28;20109;-78
2021/01/09 02:02:11;;;;;;;24.98;13.95;;;1.90;99.90;;;;;;5014126;28;20116;-78
2021/01/09 02:04:37;;;;;;;27.15;13.70;;;1.90;99.90;;;;;;4996687;28;20022;-78
2021/01/09 02:07:13;;;;;;;25.20;14.02;;;1.90;99.90;;;;;;5017065;28;20018;-78
2021/01/09 02:09:42;;;;;;;24.52;13.35;;;1.90;99.90;;;;;;5017625;28;20030;-78
2021/01/09 02:12:13;;;;;;;26.50;13.50;;;1.90;99.90;;;;;;5017961;28;20037;-78
2021/01/09 02:15:00;;;;;;;24.73;13.60;;;2.00;99.90;;;;;;5017751;28;20038;-78
2021/01/09 02:17:26;;;;;;;23.33;13.55;;;2.00;99.90;;;;;;4998026;28;20296;-79
2021/01/09 02:19:57;;;;;;;25.02;13.63;;;2.00;99.90;;;;;;5014649;28;20026;-78
2021/01/09 02:22:24;;;;;;;23.17;12.70;;;2.00;99.90;;;;;;4996733;28;20021;-78
2021/01/09 02:24:49;;;;;;;24.67;13.35;;;2.00;99.90;;;;;;5014119;28;20049;-78
2021/01/09 02:27:15;;;;;;;23.45;13.75;;;2.10;99.90;;;;;;5015368;28;20022;-79
2021/01/09 02:29:50;;;;;;;24.60;13.80;;;2.00;99.90;;;;;;4997151;28;20026;-78
2021/01/09 02:32:18;;;;;;;25.90;13.82;;;2.10;99.90;;;;;;5014070;28;20018;-78
2021/01/09 02:34:58;;;;;;;24.85;15.00;;;2.10;99.90;;;;;;5014067;28;20022;-79
2021/01/09 02:37:25;;;;;;;22.48;13.55;;;2.10;99.90;;;;;;4996245;28;20026;-79
2021/01/09 02:39:54;;;;;;;24.45;14.68;;;2.10;99.90;;;;;;5013778;28;20057;-80
2021/01/09 02:42:21;;;;;;;24.13;13.73;;;2.10;99.90;;;;;;5014138;28;20022;-79
2021/01/09 02:44:49;;;;;;;24.63;14.27;;;2.10;99.90;;;;;;4996828;28;20030;-78
2021/01/09 02:47:14;;;;;;;26.08;15.07;;;2.10;99.90;;;;;;5013918;28;20037;-79
2021/01/09 02:49:40;;;;;;;28.23;15.10;;;2.10;99.90;;;;;;5013691;28;20030;-79
2021/01/09 02:52:06;;;;;;;27.80;15.50;;;2.10;99.90;;;;;;4996403;28;20112;-79
2021/01/09 02:54:32;;;;;;;26.52;14.95;;;2.20;99.90;;;;;;4996098;28;20165;-80
2021/01/09 02:56:57;;;;;;;25.05;15.15;;;2.20;99.90;;;;;;5013586;28;20176;-79
2021/01/09 02:59:23;;;;;;;25.25;14.77;;;2.20;99.90;;;;;;5013872;28;20037;-80
2021/01/09 03:01:49;;;;;;;30.67;16.10;;;2.20;99.90;;;;;;5013795;28;20033;-79
2021/01/09 03:04:15;;;;;;;25.00;15.07;;;2.20;99.90;;;;;;4995747;28;20109;-79
2021/01/09 03:06:41;;;;;;;29.10;15.18;;;2.20;99.90;;;;;;5013229;28;20110;-80
2021/01/09 03:09:07;;;;;;;27.73;15.10;;;2.20;99.90;;;;;;5013339;28;20029;-79
2021/01/09 03:11:33;;;;;;;26.88;15.15;;;2.20;99.90;;;;;;5012971;28;20029;-80
2021/01/09 03:13:59;;;;;;;25.27;15.00;;;2.20;99.90;;;;;;4995280;28;20065;-80
2021/01/09 03:16:25;;;;;;;25.63;15.43;;;2.20;99.90;;;;;;5013368;28;20057;-78
2021/01/09 03:18:50;;;;;;;24.77;14.82;;;2.20;99.90;;;;;;5013298;28;20053;-79
2021/01/09 03:21:16;;;;;;;34.45;16.02;;;2.20;99.90;;;;;;5013246;28;20455;-78
2021/01/09 03:23:42;;;;;;;30.45;16.13;;;2.30;99.90;;;;;;5013358;28;20026;-78
2021/01/09 03:26:08;;;;;;;27.40;15.25;;;2.30;99.90;;;;;;5013294;28;20040;-79
2021/01/09 03:28:34;;;;;;;26.42;15.60;;;2.30;99.90;;;;;;5015051;28;20030;-79
2021/01/09 03:30:59;;;;;;;28.23;15.55;;;2.30;99.90;;;;;;4996268;28;20022;-79
2021/01/09 03:33:25;;;;;;;25.98;15.05;;;2.20;99.90;;;;;;5013142;28;20045;-79
2021/01/09 03:35:51;;;;;;;26.88;15.35;;;2.20;99.90;;;;;;5013054;28;20456;-80
2021/01/09 03:38:16;;;;;;;25.77;14.93;;;2.20;99.90;;;;;;5013012;28;20456;-79
2021/01/09 03:40:42;;;;;;;25.35;15.02;;;2.30;99.90;;;;;;5012772;28;20065;-80
2021/01/09 03:43:08;;;;;;;25.90;14.82;;;2.20;99.90;;;;;;4995593;28;20036;-79
2021/01/09 03:45:34;;;;;;;28.08;14.80;;;2.20;99.90;;;;;;5013578;28;20133;-78
2021/01/09 03:48:00;;;;;;;26.00;14.80;;;2.20;99.90;;;;;;5012926;28;20030;-78
2021/01/09 03:50:26;;;;;;;30.98;16.70;;;2.20;99.90;;;;;;5012794;28;20030;-79
2021/01/09 03:52:51;;;;;;;29.25;17.42;;;2.20;99.90;;;;;;4995188;28;20464;-79
2021/01/09 03:55:17;;;;;;;34.72;18.35;;;2.20;99.90;;;;;;5012820;28;20052;-79
2021/01/09 03:57:43;;;;;;;29.88;17.20;;;2.20;99.90;;;;;;5012570;28;20022;-80
2021/01/09 04:00:09;;;;;;;29.38;16.85;;;2.10;99.90;;;;;;5012514;28;20037;-79
2021/01/09 04:02:35;;;;;;;31.63;17.67;;;2.10;99.90;;;;;;5012640;28;20029;-80
2021/01/09 04:05:01;;;;;;;29.02;15.73;;;2.10;99.90;;;;;;5012931;28;20026;-81
2021/01/09 04:07:26;;;;;;;31.55;15.85;;;2.10;99.90;;;;;;4995183;28;20049;-79
2021/01/09 04:09:52;;;;;;;30.85;16.67;;;2.10;99.90;;;;;;5012461;28;20054;-78
2021/01/09 04:12:18;;;;;;;25.13;14.52;;;2.10;99.90;;;;;;5013001;28;20109;-78
2021/01/09 04:14:44;;;;;;;28.20;15.48;;;2.10;99.90;;;;;;5012974;28;20451;-80
2021/01/09 04:17:10;;;;;;;30.00;16.10;;;2.00;99.90;;;;;;4995768;28;20117;-80
2021/01/09 04:19:35;;;;;;;25.85;15.30;;;2.00;99.90;;;;;;5013520;28;20053;-79
2021/01/09 04:22:01;;;;;;;33.20;16.80;;;2.00;99.90;;;;;;5013094;28;20105;-80
2021/01/09 04:24:27;;;;;;;31.65;15.63;;;2.00;99.90;;;;;;5014373;28;20028;-81
2021/01/09 04:26:58;;;;;;;29.35;16.38;;;2.00;99.90;;;;;;5017337;28;20092;-80
2021/01/09 04:29:25;;;;;;;30.15;16.63;;;2.00;99.90;;;;;;5016815;28;20058;-79
2021/01/09 04:31:50;;;;;;;26.88;15.13;;;1.90;99.90;;;;;;5016671;28;20029;-79
2021/01/09 04:34:17;;;;;;;31.00;15.60;;;1.90;99.90;;;;;;5016174;28;20022;-79
2021/01/09 04:36:43;;;;;;;28.40;15.98;;;1.90;99.90;;;;;;4999023;28;20121;-79
2021/01/09 04:39:09;;;;;;;27.30;15.40;;;1.90;99.90;;;;;;5016198;28;20102;-79
2021/01/09 04:41:36;;;;;;;26.52;15.75;;;1.90;99.90;;;;;;4998721;28;20499;-79
2021/01/09 04:44:09;;;;;;;28.63;16.00;;;1.90;99.90;;;;;;5016313;28;20353;-78
2021/01/09 04:46:44;;;;;;;30.65;17.35;;;1.90;99.90;;;;;;5016627;28;20476;-79
2021/01/09 04:49:11;;;;;;;31.52;16.38;;;1.90;99.90;;;;;;5016235;28;20033;-79
2021/01/09 04:51:37;;;;;;;32.38;16.35;;;1.90;99.90;;;;;;4998613;28;20022;-79
2021/01/09 04:54:04;;;;;;;32.35;16.95;;;1.90;99.90;;;;;;5015766;28;20022;-80
2021/01/09 04:56:30;;;;;;;29.08;15.98;;;1.90;99.90;;;;;;5015823;28;20033;-81
2021/01/09 04:58:56;;;;;;;29.27;16.42;;;1.90;99.90;;;;;;4998196;28;20022;-78
2021/01/09 05:01:22;;;;;;;30.50;16.42;;;1.90;99.90;;;;;;5015979;28;20049;-79
2021/01/09 05:03:48;;;;;;;31.33;17.48;;;1.90;99.90;;;;;;4998344;28;20037;-80
2021/01/09 05:06:21;;;;;;;32.13;17.33;;;1.80;99.90;;;;;;4998481;28;20392;-80
2021/01/09 05:08:47;;;;;;;;;;;1.90;99.90;;;;;;5020380;28;20116;-79
2021/01/09 05:11:16;;;;;;;36.33;16.67;;;1.80;99.90;;;;;;5020439;28;19909;-80
2021/01/09 05:13:43;;;;;;;30.05;16.23;;;1.80;99.90;;;;;;5003351;28;20404;-80
2021/01/09 05:16:13;;;;;;;31.77;16.77;;;1.80;99.90;;;;;;5022384;28;20018;-80
2021/01/09 05:18:39;;;;;;;31.80;17.20;;;1.80;99.90;;;;;;5005648;28;20030;-80
2021/01/09 05:21:05;;;;;;;30.35;16.42;;;1.80;99.90;;;;;;5019425;28;20105;-78
2021/01/09 05:23:49;;;;;;;36.22;18.67;;;1.80;99.90;;;;;;5019509;28;20072;-79
2021/01/09 05:26:19;;;;;;;33.20;17.17;;;1.80;99.90;;;;;;4999490;28;20042;-80
2021/01/09 05:28:58;;;;;;;31.13;17.08;;;1.90;99.90;;;;;;5015914;28;20021;-79
2021/01/09 05:31:26;;;;;;;31.85;17.67;;;1.90;99.90;;;;;;4997434;28;20049;-80
2021/01/09 05:33:52;;;;;;;30.95;17.33;;;1.90;99.90;;;;;;4997312;28;20018;-80
2021/01/09 05:36:20;;;;;;;32.63;17.23;;;1.90;99.90;;;;;;4996426;28;20109;-81
2021/01/09 05:38:47;;;;;;;35.00;18.20;;;1.90;99.90;;;;;;5014379;28;20032;-79
2021/01/09 05:41:20;;;;;;;32.70;17.27;;;2.00;99.90;;;;;;5014774;28;20064;-80
2021/01/09 05:43:57;;;;;;;32.53;17.60;;;2.00;99.90;;;;;;5014326;28;20053;-78
2021/01/09 05:46:23;;;;;;;35.22;17.50;;;2.00;99.90;;;;;;4997482;28;20040;-78
2021/01/09 05:48:49;;;;;;;32.70;17.88;;;2.00;99.90;;;;;;5014906;28;20034;-79
2021/01/09 05:51:17;;;;;;;38.53;18.48;;;2.00;99.90;;;;;;5014850;28;20029;-78
2021/01/09 05:53:44;;;;;;;36.22;18.90;;;2.00;99.90;;;;;;5014898;28;20025;-80
2021/01/09 05:56:21;;;;;;;34.53;19.13;;;2.10;99.90;;;;;;5014828;28;20022;-80
2021/01/09 05:58:51;;;;;;;34.58;18.38;;;2.10;99.90;;;;;;5014757;28;20472;-80
2021/01/09 06:01:28;;;;;;;36.58;18.15;;;2.10;99.90;;;;;;5014412;28;20045;-80
2021/01/09 06:04:05;;;;;;;34.65;18.60;;;2.10;99.90;;;;;;5014323;28;20026;-81
2021/01/09 06:06:40;;;;;;;35.05;19.42;;;2.10;99.90;;;;;;4996788;28;20030;-79
2021/01/09 06:09:09;;;;;;;41.55;19.17;;;2.10;99.90;;;;;;5014326;28;20104;-79
2021/01/09 06:11:39;;;;;;;35.85;19.17;;;2.20;99.90;;;;;;5014309;28;20026;-80
2021/01/09 06:14:10;;;;;;;41.20;20.23;;;2.10;99.90;;;;;;4996324;28;20081;-81
2021/01/09 06:16:37;;;;;;;38.97;19.90;;;2.10;99.90;;;;;;4996364;28;20029;-79
2021/01/09 06:19:04;;;;;;;36.70;19.45;;;2.20;99.90;;;;;;5014310;28;20049;-82
2021/01/09 06:21:31;;;;;;;33.95;18.27;;;2.20;99.90;;;;;;5014407;28;20064;-80
2021/01/09 06:23:58;;;;;;;35.22;19.50;;;2.20;99.90;;;;;;5013785;28;20053;-80
2021/01/09 06:26:26;;;;;;;37.90;18.23;;;2.30;99.90;;;;;;4996607;28;20529;-79
2021/01/09 06:28:58;;;;;;;34.28;18.65;;;2.20;99.90;;;;;;5014032;28;20022;-80
2021/01/09 06:31:28;;;;;;;33.00;18.90;;;2.30;99.90;;;;;;4996220;28;20445;-79
2021/01/09 06:33:57;;;;;;;42.30;21.90;;;2.30;99.90;;;;;;5014629;28;20701;-82
2021/01/09 06:36:25;;;;;;;42.15;20.20;;;2.30;99.90;;;;;;5016508;28;20349;-84
2021/01/09 06:38:59;;;;;;;39.65;20.65;;;2.30;99.90;;;;;;4998179;28;20029;-84
2021/01/09 06:41:25;;;;;;;34.55;18.48;;;2.40;99.90;;;;;;5016427;28;20025;-82
2021/01/09 06:43:54;;;;;;;42.80;20.83;;;2.40;99.90;;;;;;5018541;28;20030;-84
2021/01/09 06:46:28;;;;;;;37.63;19.48;;;2.40;99.90;;;;;;4998231;28;20125;-84
2021/01/09 06:48:54;;;;;;;36.85;19.77;;;2.50;99.90;;;;;;5015249;28;20030;-83
2021/01/09 06:51:35;;;;;;;38.13;20.35;;;2.50;99.90;;;;;;5015656;28;20105;-83
2021/01/09 06:54:15;;;;;;;38.75;20.45;;;2.50;99.90;;;;;;5014830;28;20018;-84
2021/01/09 06:57:09;;;;;;;37.75;19.08;;;2.60;99.90;;;;;;4997593;28;20032;-84
2021/01/09 06:59:37;;;;;;;41.65;20.92;;;2.60;99.90;;;;;;5014631;28;20476;-83
2021/01/09 07:02:19;;;;;;;40.10;20.60;;;2.60;99.90;;;;;;4997949;28;20022;-84
2021/01/09 07:04:54;;;;;;;42.20;21.20;;;2.60;99.90;;;;;;5015803;28;20029;-82
2021/01/09 07:07:36;;;;;;;37.78;20.52;;;2.70;99.90;;;;;;5015995;28;20431;-85
2021/01/09 07:10:10;;;;;;;36.58;19.77;;;2.70;99.90;;;;;;5015033;28;20054;-88
2021/01/09 07:12:39;;;;;;;42.55;20.65;;;2.70;99.90;;;;;;4997032;28;20022;-86
2021/01/09 07:15:10;;;;;;;41.90;22.75;;;2.70;99.90;;;;;;4996608;28;20506;-85
2021/01/09 07:17:38;;;;;;;39.50;21.63;;;2.70;99.90;;;;;;4996865;28;20037;-85
2021/01/09 07:20:08;;;;;;;45.50;21.60;;;2.70;99.90;;;;;;5017096;28;20022;-84
2021/01/09 07:22:38;;;;;;;43.58;22.42;;;2.80;99.90;;;;;;5015549;28;20024;-86
2021/01/09 07:25:09;;;;;;;44.33;23.25;;;2.80;99.90;;;;;;5015798;28;20022;-84
2021/01/09 07:27:41;;;;;;;41.95;21.02;;;2.90;99.90;;;;;;5019254;28;20076;-84
2021/01/09 07:30:17;;;;;;;42.25;22.50;;;2.90;99.90;;;;;;5000098;28;20077;-83
2021/01/09 07:32:48;;;;;;;39.55;21.90;;;2.90;99.90;;;;;;5020933;28;20040;-85
2021/01/09 07:35:24;;;;;;;41.38;21.77;;;3.00;99.90;;;;;;5021596;28;20030;-85
2021/01/09 07:37:56;;;;;;;46.92;25.05;;;3.00;99.90;;;;;;5003188;28;20065;-84
2021/01/09 07:40:23;;;;;;;40.97;23.02;;;3.00;99.90;;;;;;5013633;28;20025;-86
2021/01/09 07:43:27;;;;;;;44.47;21.30;;;3.10;99.90;;;;;;5003007;28;20104;-86
2021/01/09 07:46:32;;;;;;;41.25;21.23;;;3.10;99.90;;;;;;5009458;28;20440;-85
2021/01/09 07:49:03;;;;;;;45.80;21.98;;;3.10;99.90;;;;;;5005129;28;20025;-85
2021/01/09 07:51:52;;;;;;;46.83;22.95;;;3.20;99.90;;;;;;4996245;28;20095;-86
2021/01/09 07:54:56;;;;;;;52.53;24.23;;;3.20;99.90;;;;;;5000840;28;20029;-83
2021/01/09 07:57:36;;;;;;;50.28;27.95;;;3.20;99.90;;;;;;4996206;28;20038;-86
2021/01/09 08:00:10;;;;;;;52.75;25.70;;;3.30;99.90;;;;;;5006086;28;20057;-84
2021/01/09 08:02:38;;;;;;;46.92;24.38;;;3.30;99.90;;;;;;5001943;28;20034;-84
2021/01/09 08:05:25;;;;;;;46.53;24.00;;;3.30;99.90;;;;;;5017149;28;20029;-84
2021/01/09 08:07:52;;;;;;;40.75;22.85;;;3.40;99.90;;;;;;5013910;28;20040;-83
2021/01/09 08:10:28;;;;;;;47.58;22.95;;;3.40;99.90;;;;;;5013318;28;20030;-82
2021/01/09 08:12:55;;;;;;;45.33;22.77;;;3.50;99.90;;;;;;5013941;28;20022;-83
2021/01/09 08:15:21;;;;;;;50.08;27.58;;;3.50;99.90;;;;;;5013345;28;20397;-80
2021/01/09 08:17:46;;;;;;;49.53;24.02;;;3.60;99.90;;;;;;5011659;28;20030;-81
2021/01/09 08:20:14;;;;;;;47.00;24.88;;;3.60;99.90;;;;;;5012117;28;20050;-82
2021/01/09 08:22:51;;;;;;;55.80;25.60;;;3.70;99.90;;;;;;4993377;28;20068;-81
2021/01/09 08:25:17;;;;;;;45.95;22.92;;;3.70;99.90;;;;;;4993909;28;20408;-81
2021/01/09 08:27:45;;;;;;;62.72;23.60;;;3.80;99.90;;;;;;5012378;28;20030;-85
2021/01/09 08:30:12;;;;;;;46.42;23.15;;;3.90;99.90;;;;;;4996694;28;20030;-85
2021/01/09 08:32:38;;;;;;;45.40;23.17;;;4.00;99.90;;;;;;4998251;28;20022;-84
2021/01/09 08:35:05;;;;;;;46.55;23.27;;;4.00;99.90;;;;;;4997599;28;20488;-84
2021/01/09 08:37:31;;;;;;;45.95;23.95;;;4.10;99.90;;;;;;4997072;28;20384;-85
2021/01/09 08:39:57;;;;;;;40.08;22.10;;;4.20;99.90;;;;;;4997173;28;20026;-84
2021/01/09 08:42:23;;;;;;;46.97;22.70;;;4.30;99.90;;;;;;4995632;28;20553;-84
2021/01/09 08:44:48;;;;;;;58.80;26.65;;;4.30;99.90;;;;;;5014520;28;20037;-84
2021/01/09 08:47:18;;;;;;;42.10;21.77;;;4.40;99.90;;;;;;5013682;28;20032;-82
2021/01/09 08:49:46;;;;;;;47.97;22.13;;;4.50;99.90;;;;;;5012412;28;20160;-82
2021/01/09 08:52:16;;;;;;;45.53;23.10;;;4.60;99.90;;;;;;5011673;28;20037;-83
2021/01/09 08:54:46;;;;;;;43.33;23.13;;;4.60;99.90;;;;;;5012239;28;20062;-83
2021/01/09 08:57:14;;;;;;;39.72;22.55;;;4.70;99.90;;;;;;5013306;28;20022;-83
2021/01/09 08:59:41;;;;;;;44.20;21.55;;;4.80;99.90;;;;;;4995244;28;20469;-81
2021/01/09 09:02:12;;;;;;;44.95;23.45;;;4.90;99.90;;;;;;4994280;28;20452;-82
2021/01/09 09:04:42;;;;;;;44.85;23.02;;;4.90;99.90;;;;;;5012232;28;20159;-82
2021/01/09 09:07:09;;;;;;;45.53;22.50;;;5.00;99.90;;;;;;5012088;28;20101;-80
2021/01/09 09:09:40;;;;;;;49.80;23.20;;;5.10;99.90;;;;;;5010554;28;20052;-79
2021/01/09 09:12:06;;;;;;;42.30;22.70;;;5.10;99.90;;;;;;5013099;28;20433;-79
2021/01/09 09:14:33;;;;;;;44.33;22.88;;;5.20;99.90;;;;;;5013025;28;20096;-80
2021/01/09 09:17:01;;;;;;;45.75;23.17;;;5.20;99.90;;;;;;5013078;28;20079;-78
2021/01/09 09:19:33;;;;;;;51.72;25.52;;;5.30;99.90;;;;;;5013338;28;20018;-81
2021/01/09 09:21:59;;;;;;;41.83;23.70;;;5.30;99.90;;;;;;5013266;28;20025;-83
2021/01/09 09:24:42;;;;;;;38.45;21.58;;;5.40;99.90;;;;;;5013723;28;20519;-82
2021/01/09 09:27:28;;;;;;;45.53;22.77;;;5.50;99.90;;;;;;5000316;28;20029;-81
2021/01/09 09:30:13;;;;;;;42.03;22.30;;;5.60;99.90;;;;;;5013900;28;20608;-80
2021/01/09 09:32:45;;;;;;;43.40;22.67;;;5.70;99.90;;;;;;5028230;28;20034;-80
2021/01/09 09:35:24;;;;;;;41.38;23.92;;;5.80;99.90;;;;;;5033319;28;20041;-81
2021/01/09 09:37:51;;;;;;;56.42;24.48;;;5.80;99.90;;;;;;5035246;28;20090;-81
2021/01/09 09:40:29;;;;;;;41.97;23.15;;;5.80;99.90;;;;;;5022359;28;20104;-80
2021/01/09 09:42:55;;;;;;;39.80;22.58;;;5.80;99.90;;;;;;5016396;28;20018;-81
2021/01/09 09:45:21;;;;;;;48.17;23.45;;;5.80;99.90;;;;;;5015062;28;20077;-81
2021/01/09 09:47:48;;;;;;;51.60;24.67;;;5.80;99.90;;;;;;5014315;28;20081;-82
2021/01/09 09:50:21;;;;;;;42.67;21.85;;;5.80;99.90;;;;;;4996784;28;20167;-81
2021/01/09 09:53:06;;;;;;;38.60;21.77;;;5.70;99.90;;;;;;5014908;28;20032;-80
2021/01/09 09:55:32;;;;;;;44.30;22.90;;;5.70;99.90;;;;;;5012831;28;20026;-79
2021/01/09 09:58:09;;;;;;;44.90;24.20;;;5.70;99.90;;;;;;5013233;28;20300;-78
2021/01/09 10:00:44;;;;;;;44.17;23.30;;;5.80;99.90;;;;;;5013336;28;20026;-80
2021/01/09 10:03:11;;;;;;;43.83;23.35;;;5.80;99.90;;;;;;5013094;28;20032;-81
2021/01/09 10:05:36;;;;;;;46.67;25.13;;;5.80;99.90;;;;;;5013365;28;20041;-80
2021/01/09 10:08:10;;;;;;;45.00;26.08;;;5.80;99.90;;;;;;5014435;28;20029;-83
2021/01/09 10:10:36;;;;;;;43.05;23.23;;;5.80;99.90;;;;;;5014887;28;20026;-82
2021/01/09 10:13:01;;;;;;;43.95;23.73;;;5.80;99.90;;;;;;4996895;28;20052;-82
2021/01/09 10:15:27;;;;;;;45.45;24.10;;;5.80;99.90;;;;;;4996635;28;20081;-82
2021/01/09 10:17:57;;;;;;;44.92;24.02;;;5.90;99.90;;;;;;5014479;28;20092;-83
2021/01/09 10:20:23;;;;;;;42.78;22.90;;;5.90;99.90;;;;;;4996495;28;20041;-83
2021/01/09 10:22:49;;;;;;;51.20;24.40;;;5.90;99.90;;;;;;5014460;28;20034;-81
2021/01/09 10:25:16;;;;;;;38.88;22.40;;;5.90;99.90;;;;;;4994799;28;20048;-81
2021/01/09 10:27:42;;;;;;;41.20;22.48;;;5.90;99.90;;;;;;5012439;28;20026;-81
2021/01/09 10:30:08;;;;;;;40.45;23.70;;;5.90;99.90;;;;;;4994851;28;20034;-81
2021/01/09 10:32:34;;;;;;;50.92;23.33;;;5.90;99.90;;;;;;4994941;28;20026;-82
2021/01/09 10:35:00;;;;;;;39.38;23.30;;;6.00;99.90;;;;;;5012363;28;20546;-80
2021/01/09 10:37:26;;;;;;;45.95;22.88;;;6.00;99.90;;;;;;4996342;28;20033;-81
2021/01/09 10:39:51;;;;;;;44.90;24.83;;;6.00;99.90;;;;;;5015547;28;20039;-81
2021/01/09 10:42:17;;;;;;;42.20;22.80;;;6.00;99.90;;;;;;5013846;28;20022;-81
2021/01/09 10:44:43;;;;;;;54.08;25.15;;;6.00;99.90;;;;;;5015266;28;20785;-81
2021/01/09 10:47:08;;;;;;;49.47;25.25;;;5.90;99.90;;;;;;5013901;28;20461;-84
2021/01/09 10:49:34;;;;;;;42.03;23.35;;;5.90;99.90;;;;;;5012491;28;20034;-80
2021/01/09 10:52:03;;;;;;;47.33;23.88;;;5.90;99.90;;;;;;5013496;28;20416;-82
2021/01/09 10:54:29;;;;;;;43.58;23.88;;;5.90;99.90;;;;;;4996451;28;20028;-83
2021/01/09 10:56:55;;;;;;;44.10;23.33;;;5.90;99.90;;;;;;5017308;28;20109;-82
2021/01/09 10:59:21;;;;;;;46.28;24.88;;;5.80;99.90;;;;;;4996713;28;20060;-83
2021/01/09 11:01:47;;;;;;;39.85;22.65;;;5.80;99.90;;;;;;4996439;28;20037;-83
2021/01/09 11:04:15;;;;;;;43.58;23.27;;;5.80;99.90;;;;;;5027249;28;20057;-80
2021/01/09 11:06:41;;;;;;;43.92;23.30;;;5.80;99.90;;;;;;5008435;28;20029;-84
2021/01/09 11:09:07;;;;;;;45.42;24.98;;;5.70;99.90;;;;;;4996711;28;20326;-80
2021/01/09 11:11:33;;;;;;;44.75;23.27;;;5.70;99.90;;;;;;4995537;28;20124;-81
2021/01/09 11:13:58;;;;;;;47.67;27.23;;;5.60;99.90;;;;;;4994291;28;20085;-80
2021/01/09 11:16:25;;;;;;;42.53;22.92;;;5.60;99.90;;;;;;5012531;28;20026;-80
2021/01/09 11:18:51;;;;;;;48.05;22.70;;;5.50;99.90;;;;;;5013965;28;20033;-80
2021/01/09 11:21:18;;;;;;;42.35;23.30;;;5.60;99.90;;;;;;5012295;28;20106;-81
2021/01/09 11:23:45;;;;;;;46.03;23.95;;;5.60;99.90;;;;;;5012232;28;20038;-81
2021/01/09 11:26:22;;;;;;;37.50;20.30;;;5.70;99.90;;;;;;5012278;28;20068;-80
2021/01/09 11:28:48;;;;;;;38.83;21.17;;;5.70;99.90;;;;;;5012817;28;20022;-81
2021/01/09 11:31:13;;;;;;;35.17;20.17;;;5.70;99.90;;;;;;5012234;28;20084;-80
2021/01/09 11:33:42;;;;;;;44.60;21.33;;;5.80;99.90;;;;;;4994690;28;20100;-81
2021/01/09 11:36:12;;;;;;;39.13;20.65;;;5.80;99.90;;;;;;5012459;28;20026;-83
2021/01/09 11:38:38;;;;;;;38.47;21.45;;;5.80;99.90;;;;;;5012696;28;20121;-81
2021/01/09 11:41:04;;;;;;;39.72;21.33;;;5.80;99.90;;;;;;5013376;28;20034;-81
2021/01/09 11:43:30;;;;;;;34.53;19.58;;;5.80;99.90;;;;;;4995335;28;20060;-81
2021/01/09 11:45:56;;;;;;;38.40;21.00;;;5.80;99.90;;;;;;4995685;28;20429;-81
2021/01/09 11:48:22;;;;;;;41.85;21.17;;;5.80;99.90;;;;;;4995564;28;20421;-81
2021/01/09 11:50:51;;;;;;;36.97;20.35;;;5.80;99.90;;;;;;4995989;28;20036;-82
2021/01/09 11:53:17;;;;;;;36.38;21.05;;;5.80;99.90;;;;;;5016863;28;20034;-80
2021/01/09 11:55:43;;;;;;;43.35;22.05;;;5.80;99.90;;;;;;5013376;28;20097;-80
2021/01/09 11:58:09;;;;;;;41.65;22.58;;;5.80;99.90;;;;;;4995227;28;20364;-82
2021/01/09 12:00:34;;;;;;;43.30;22.13;;;5.80;99.90;;;;;;4995588;28;20076;-82
2021/01/09 12:03:00;;;;;;;42.15;22.02;;;5.80;99.90;;;;;;5014762;28;20064;-83
2021/01/09 12:05:26;;;;;;;41.67;21.73;;;5.80;99.90;;;;;;4999313;28;20026;-80
2021/01/09 12:07:51;;;;;;;40.20;21.85;;;5.80;99.90;;;;;;5014415;28;20038;-79
2021/01/09 12:10:17;;;;;;;42.60;22.73;;;5.80;99.90;;;;;;5012318;28;20037;-78
2021/01/09 12:12:45;;;;;;;39.33;21.30;;;5.80;99.90;;;;;;5012334;28;20727;-81
2021/01/09 12:15:12;;;;;;;48.63;23.52;;;5.80;99.90;;;;;;5011933;28;20077;-80
2021/01/09 12:17:47;;;;;;;40.53;22.00;;;5.80;99.90;;;;;;5013467;28;20045;-83
2021/01/09 12:20:13;;;;;;;38.17;22.23;;;5.70;99.90;;;;;;5011172;28;20392;-81
2021/01/09 12:22:39;;;;;;;41.00;22.10;;;5.80;99.90;;;;;;5011974;28;20033;-80
2021/01/09 12:25:06;;;;;;;44.35;21.90;;;5.80;99.90;;;;;;5011015;28;20033;-84
2021/01/09 12:27:32;;;;;;;45.75;22.15;;;5.70;99.90;;;;;;5011149;28;20026;-81
2021/01/09 12:29:58;;;;;;;44.63;22.95;;;5.80;99.90;;;;;;5014647;28;20357;-83
2021/01/09 12:32:26;;;;;;;39.45;22.17;;;5.80;99.90;;;;;;5018645;28;20089;-81
2021/01/09 12:34:52;;;;;;;38.45;21.13;;;5.80;99.90;;;;;;4994442;28;20056;-81
2021/01/09 12:37:18;;;;;;;45.30;21.15;;;5.80;99.90;;;;;;5009302;28;20080;-79
2021/01/09 12:39:43;;;;;;;39.95;20.58;;;5.70;99.90;;;;;;5010620;28;20080;-78
2021/01/09 12:42:12;;;;;;;52.08;24.20;;;5.70;99.90;;;;;;5010358;28;20143;-79
2021/01/09 12:44:38;;;;;;;42.08;21.15;;;5.60;99.90;;;;;;4994612;28;20034;-79
2021/01/09 12:47:04;;;;;;;52.05;22.00;;;5.50;99.90;;;;;;5014314;28;20022;-79